Portada
METAR-TAF:

METAR-TAF

Aeroports :

Vavaʻu, Tonga

latitud: 18-35-07S, longitud: 173-57-42W, altitud: 72 m

Observació

L'informe es va fer fa 41 minuts, a les 21:00 UTC
Vent 7 kt del Nord
Temperatura 29°C
Humitat 79%
Pressió 1011 hPa
Visibilitat 10 km o més
Escasses núvols a una alçada de 900 ft
Núvols disperses a una alçada de 1600 ft

METAR: NFTV 262100Z 01007KT 9999 FEW009 SCT016 29/25 Q1011

Hora: 10:41 (21:41 UTC)

Pronòstic

L'informe es va fer fa 4 hores i 21 minuts, a les 17:20 UTC
Pronòstic vàlid del 26 a les 18 UTC al 27 a les 18 UTC
Vent 7 kt del Nord
Visibilitat 10 km o més
Escasses núvols a una alçada de 1600 ft
Probabilitat 40% :
Temporalment
l' 27 a les 12 UTC al 27 a les 18 UTC
Visibilitat: 5000 m
Cel ennuvolat a una alçada de 1500 ft
xàfecs de pluja

TAF: NFTV 261720Z 2618/2718 36007KT 9999 FEW016 PROB40 TEMPO 2712/2718 5000 SHRA BKN015

Observacions i pronòstics meteorològics de més de 4000 aeroports (METAR i TAF).

Les estacions disponibles són els punts grocs i vermells al mapa.

Posi el ratolí al punt desitjat per veure el nom de l'estació.

Feu clic per veure les observacions i els pronòstics meteorològics.

Per canviar el mapa: feu clic els botons verds amb una creu de color negre per apropar; al botó verd amb un guió per allunyar la imatge; o en les fletxes verdes per a mapes adjacents.


METAR-TAF: